Detall de PIREP

Printer-friendly versionPDF version

[2008/08/29 21:07:00]
Flight IATA:CT3128
Pilot Number:011
Company ICAO:CAT
Aircraft Type:F28/A
PAX:85
Departing Airport: LEVC
Destination Airport: LEZG
Alternate Airport:LEMD
Online: VATSIM
Route:TATOS A34 MLA
Flight Level:FL200
No Slew and time accel
No pause
Crash detect
Detect pilot in Cockpit between each 30 and 45 minutes
21:07 Zero fuel Weight: 60288 Lbs, Fuel Weight: 8304 Lbs
21:07 VATSIM:LEVC 292030Z 17003KT CAVOK 25/18 Q1016 NOSIG
21:07 VATSIM:LEZG 292030Z 13007KT CAVOK 28/13 Q1014
21:11 Parking Brakes off
21:20 Take-off
21:20 Take off Weight: 68080 Lbs
21:20 Wind: 183 @ 002 Knots Heading: 295
21:20 POS N39 29 25 W000 29 06
21:20 Flaps:2 at 164 Knots
21:20 Gear Up: 167 Knots
21:21 Flaps:1 at 212 Knots
21:21 Flaps:0 at 231 Knots
21:31 TOC
21:31 Fuel Weight: 6307 Lb
21:35 Wind:143@015 Knots Heading: 018 Ground Speed: 394 Knots Altitude 19977
ft
21:41 TOD
21:41 Fuel Weight: 5561 Lb
21:50 Wind:110@007 Knots Heading: 196 Ground Speed: 274 Knots Altitude 3900 ft
21:56 Flaps:1 at 248 Knots
21:56 Flaps:2 at 238 Knots
21:56 Flaps:3 at 196 Knots
21:58 Flaps:4 at 188 Knots
21:58 Gear Down: 184 Knots
21:59 Flaps:5 at 150 Knots
22:00 TouchDown:Rate -163 ft/min Speed: 111 Knots
22:00 VATSIM:LEZG 292130Z 11007KT CAVOK 26/14 Q1014
22:00 Land
22:00 Wind:113@007 Knots
22:00 Heading: 300
22:00 Flight Duration: 00:40
22:00 Landing Weight: 64538 Lbs
22:00 POS N41 39 52 W001 01 44
22:07 Parking brakes on
22:07 Block to Block Duration: 00:56
22:07 Final Fuel: 3988 Lbls
22:07 Spent Fuel: 4316 Lbls
22:07 Flight Length: 59 NM
22:07 TOD Land Length: 29 NM

Exportar CSV

Powered by Drupal - Modified by Danger4k